sensor_id;sensor_type;location;lat;lon;timestamp;pressure;altitude;pressure_sealevel;temperature;humidity
50710;BME280;37033;49.994;21.992;2023-03-22T00:02:06;99291.83;;;5.09;86.10
50710;BME280;37033;49.994;21.992;2023-03-22T00:04:36;99288.31;;;5.10;85.99
50710;BME280;37033;49.994;21.992;2023-03-22T00:07:07;99286.94;;;5.11;86.06
50710;BME280;37033;49.994;21.992;2023-03-22T00:09:38;99286.28;;;5.10;86.07
50710;BME280;37033;49.994;21.992;2023-03-22T00:12:09;99284.89;;;5.11;86.11
50710;BME280;37033;49.994;21.992;2023-03-22T00:14:40;99285.08;;;5.10;85.97
50710;BME280;37033;49.994;21.992;2023-03-22T00:17:11;99280.48;;;5.09;86.05
50710;BME280;37033;49.994;21.992;2023-03-22T00:19:42;99277.16;;;5.09;85.97
50710;BME280;37033;49.994;21.992;2023-03-22T00:22:13;99275.01;;;5.07;85.95
50710;BME280;37033;49.994;21.992;2023-03-22T00:24:44;99271.44;;;5.06;86.09
50710;BME280;37033;49.994;21.992;2023-03-22T00:27:16;99267.05;;;5.05;85.94
50710;BME280;37033;49.994;21.992;2023-03-22T00:29:46;99266.95;;;5.03;85.99
50710;BME280;37033;49.994;21.992;2023-03-22T00:32:17;99270.19;;;5.01;85.91
50710;BME280;37033;49.994;21.992;2023-03-22T00:34:48;99269.58;;;4.97;85.92
50710;BME280;37033;49.994;21.992;2023-03-22T00:37:19;99268.08;;;4.94;86.00
50710;BME280;37033;49.994;21.992;2023-03-22T00:39:50;99270.54;;;4.91;85.97
50710;BME280;37033;49.994;21.992;2023-03-22T00:42:20;99267.92;;;4.86;85.94
50710;BME280;37033;49.994;21.992;2023-03-22T00:44:51;99270.90;;;4.83;86.08
50710;BME280;37033;49.994;21.992;2023-03-22T00:47:22;99265.60;;;4.80;86.06
50710;BME280;37033;49.994;21.992;2023-03-22T00:49:53;99263.70;;;4.78;86.09
50710;BME280;37033;49.994;21.992;2023-03-22T00:52:24;99264.11;;;4.76;86.25
50710;BME280;37033;49.994;21.992;2023-03-22T00:54:55;99262.08;;;4.74;86.15
50710;BME280;37033;49.994;21.992;2023-03-22T00:57:26;99262.20;;;4.72;86.15
50710;BME280;37033;49.994;21.992;2023-03-22T00:59:57;99266.84;;;4.69;86.15
50710;BME280;37033;49.994;21.992;2023-03-22T01:02:27;99267.63;;;4.67;86.16
50710;BME280;37033;49.994;21.992;2023-03-22T01:04:58;99266.38;;;4.65;86.32
50710;BME280;37033;49.994;21.992;2023-03-22T01:07:29;99261.81;;;4.60;86.14
50710;BME280;37033;49.994;21.992;2023-03-22T01:10:00;99261.77;;;4.56;86.20
50710;BME280;37033;49.994;21.992;2023-03-22T01:12:31;99258.92;;;4.52;86.18
50710;BME280;37033;49.994;21.992;2023-03-22T01:15:01;99256.27;;;4.47;86.07
50710;BME280;37033;49.994;21.992;2023-03-22T01:17:32;99251.83;;;4.41;86.10
50710;BME280;37033;49.994;21.992;2023-03-22T01:20:05;99250.15;;;4.34;86.45
50710;BME280;37033;49.994;21.992;2023-03-22T01:22:36;99246.91;;;4.27;86.41
50710;BME280;37033;49.994;21.992;2023-03-22T01:25:08;99253.31;;;4.21;86.42
50710;BME280;37033;49.994;21.992;2023-03-22T01:27:39;99248.25;;;4.16;86.51
50710;BME280;37033;49.994;21.992;2023-03-22T01:30:11;99250.55;;;4.08;86.41
50710;BME280;37033;49.994;21.992;2023-03-22T01:32:42;99248.63;;;4.02;86.72
50710;BME280;37033;49.994;21.992;2023-03-22T01:35:13;99242.73;;;3.97;86.71
50710;BME280;37033;49.994;21.992;2023-03-22T01:37:44;99239.91;;;3.93;86.74
50710;BME280;37033;49.994;21.992;2023-03-22T01:40:15;99240.98;;;3.91;86.56
50710;BME280;37033;49.994;21.992;2023-03-22T01:42:46;99242.13;;;3.89;86.75
50710;BME280;37033;49.994;21.992;2023-03-22T01:45:38;99234.65;;;3.87;86.92
50710;BME280;37033;49.994;21.992;2023-03-22T01:48:22;99233.22;;;3.85;86.79
50710;BME280;37033;49.994;21.992;2023-03-22T01:51:03;99233.36;;;3.82;86.86
50710;BME280;37033;49.994;21.992;2023-03-22T01:53:38;99233.77;;;3.78;87.06
50710;BME280;37033;49.994;21.992;2023-03-22T01:56:10;99235.68;;;3.70;87.07
50710;BME280;37033;49.994;21.992;2023-03-22T01:58:42;99234.80;;;3.65;86.92
50710;BME280;37033;49.994;21.992;2023-03-22T02:01:13;99228.74;;;3.61;87.02
50710;BME280;37033;49.994;21.992;2023-03-22T02:03:47;99234.15;;;3.60;87.05
50710;BME280;37033;49.994;21.992;2023-03-22T02:06:21;99231.58;;;3.56;87.39
50710;BME280;37033;49.994;21.992;2023-03-22T02:08:52;99231.92;;;3.50;87.35
50710;BME280;37033;49.994;21.992;2023-03-22T02:11:29;99228.48;;;3.48;87.31
50710;BME280;37033;49.994;21.992;2023-03-22T02:14:18;99225.63;;;3.48;87.55
50710;BME280;37033;49.994;21.992;2023-03-22T02:17:02;99229.42;;;3.47;87.36
50710;BME280;37033;49.994;21.992;2023-03-22T02:20:06;99235.38;;;3.47;87.48
50710;BME280;37033;49.994;21.992;2023-03-22T02:22:55;99222.97;;;3.46;87.47
50710;BME280;37033;49.994;21.992;2023-03-22T02:25:58;99222.65;;;3.47;87.46
50710;BME280;37033;49.994;21.992;2023-03-22T02:28:43;99224.34;;;3.47;87.42
50710;BME280;37033;49.994;21.992;2023-03-22T02:31:42;99226.45;;;3.46;87.53
50710;BME280;37033;49.994;21.992;2023-03-22T02:34:54;99224.83;;;3.46;87.58
50710;BME280;37033;49.994;21.992;2023-03-22T02:40:40;99224.50;;;3.44;87.46
50710;BME280;37033;49.994;21.992;2023-03-22T02:43:20;99224.13;;;3.47;87.51
50710;BME280;37033;49.994;21.992;2023-03-22T02:46:05;99225.39;;;3.50;87.72
50710;BME280;37033;49.994;21.992;2023-03-22T02:48:41;99229.41;;;3.52;87.64
50710;BME280;37033;49.994;21.992;2023-03-22T02:51:16;99227.30;;;3.53;87.62
50710;BME280;37033;49.994;21.992;2023-03-22T02:53:53;99222.38;;;3.53;87.65
50710;BME280;37033;49.994;21.992;2023-03-22T02:56:29;99219.41;;;3.54;87.74
50710;BME280;37033;49.994;21.992;2023-03-22T02:59:04;99223.14;;;3.56;87.80
50710;BME280;37033;49.994;21.992;2023-03-22T03:01:40;99217.23;;;3.57;87.60
50710;BME280;37033;49.994;21.992;2023-03-22T03:04:16;99215.01;;;3.58;87.75
50710;BME280;37033;49.994;21.992;2023-03-22T03:06:50;99221.46;;;3.59;87.74
50710;BME280;37033;49.994;21.992;2023-03-22T03:09:23;99221.30;;;3.61;87.78
50710;BME280;37033;49.994;21.992;2023-03-22T03:11:55;99224.23;;;3.61;87.74
50710;BME280;37033;49.994;21.992;2023-03-22T03:14:27;99228.34;;;3.62;87.83
50710;BME280;37033;49.994;21.992;2023-03-22T03:17:15;99229.64;;;3.60;87.68
50710;BME280;37033;49.994;21.992;2023-03-22T03:19:59;99226.83;;;3.58;87.81
50710;BME280;37033;49.994;21.992;2023-03-22T03:22:45;99227.58;;;3.56;87.67
50710;BME280;37033;49.994;21.992;2023-03-22T03:25:25;99226.20;;;3.56;87.71
50710;BME280;37033;49.994;21.992;2023-03-22T03:28:06;99229.27;;;3.57;87.82
50710;BME280;37033;49.994;21.992;2023-03-22T03:30:46;99231.74;;;3.59;87.84
50710;BME280;37033;49.994;21.992;2023-03-22T03:33:20;99235.35;;;3.59;88.00
50710;BME280;37033;49.994;21.992;2023-03-22T03:35:57;99237.20;;;3.58;88.12
50710;BME280;37033;49.994;21.992;2023-03-22T03:38:32;99239.85;;;3.57;88.27
50710;BME280;37033;49.994;21.992;2023-03-22T03:41:06;99235.66;;;3.55;88.15
50710;BME280;37033;49.994;21.992;2023-03-22T03:43:39;99238.05;;;3.54;88.23
50710;BME280;37033;49.994;21.992;2023-03-22T03:46:11;99239.91;;;3.52;88.21
50710;BME280;37033;49.994;21.992;2023-03-22T03:48:45;99246.23;;;3.52;88.15
50710;BME280;37033;49.994;21.992;2023-03-22T03:51:17;99246.89;;;3.51;88.36
50710;BME280;37033;49.994;21.992;2023-03-22T03:53:48;99251.52;;;3.49;88.29
50710;BME280;37033;49.994;21.992;2023-03-22T03:56:19;99249.36;;;3.47;88.44
50710;BME280;37033;49.994;21.992;2023-03-22T03:58:50;99250.63;;;3.46;88.53
50710;BME280;37033;49.994;21.992;2023-03-22T04:01:21;99251.58;;;3.45;88.34
50710;BME280;37033;49.994;21.992;2023-03-22T04:03:52;99251.66;;;3.45;88.47
50710;BME280;37033;49.994;21.992;2023-03-22T04:06:23;99246.44;;;3.43;88.39
50710;BME280;37033;49.994;21.992;2023-03-22T04:08:54;99249.18;;;3.45;88.65
50710;BME280;37033;49.994;21.992;2023-03-22T04:11:26;99242.65;;;3.45;88.64
50710;BME280;37033;49.994;21.992;2023-03-22T04:13:57;99247.16;;;3.45;88.65
50710;BME280;37033;49.994;21.992;2023-03-22T04:16:28;99249.72;;;3.46;88.73
50710;BME280;37033;49.994;21.992;2023-03-22T04:18:58;99254.48;;;3.46;88.58
50710;BME280;37033;49.994;21.992;2023-03-22T04:21:29;99251.58;;;3.45;88.70
50710;BME280;37033;49.994;21.992;2023-03-22T04:24:00;99251.52;;;3.44;88.79
50710;BME280;37033;49.994;21.992;2023-03-22T04:26:31;99247.90;;;3.45;88.93
50710;BME280;37033;49.994;21.992;2023-03-22T04:29:02;99243.98;;;3.45;88.91
50710;BME280;37033;49.994;21.992;2023-03-22T04:31:33;99247.36;;;3.45;88.81
50710;BME280;37033;49.994;21.992;2023-03-22T04:34:06;99249.73;;;3.46;88.86
50710;BME280;37033;49.994;21.992;2023-03-22T04:36:37;99246.06;;;3.48;88.95
50710;BME280;37033;49.994;21.992;2023-03-22T04:39:10;99248.62;;;3.50;89.00
50710;BME280;37033;49.994;21.992;2023-03-22T04:41:41;99249.94;;;3.49;89.00
50710;BME280;37033;49.994;21.992;2023-03-22T04:44:12;99251.46;;;3.49;88.97
50710;BME280;37033;49.994;21.992;2023-03-22T04:46:42;99253.25;;;3.48;88.96
50710;BME280;37033;49.994;21.992;2023-03-22T04:49:13;99251.59;;;3.48;89.08
50710;BME280;37033;49.994;21.992;2023-03-22T04:51:44;99248.79;;;3.50;89.00
50710;BME280;37033;49.994;21.992;2023-03-22T04:54:15;99253.35;;;3.52;89.12
50710;BME280;37033;49.994;21.992;2023-03-22T04:56:46;99251.16;;;3.54;89.03
50710;BME280;37033;49.994;21.992;2023-03-22T04:59:17;99245.67;;;3.55;88.99
50710;BME280;37033;49.994;21.992;2023-03-22T05:01:49;99241.59;;;3.57;89.18
50710;BME280;37033;49.994;21.992;2023-03-22T05:04:21;99240.95;;;3.60;89.33
50710;BME280;37033;49.994;21.992;2023-03-22T05:06:52;99245.45;;;3.61;89.25
50710;BME280;37033;49.994;21.992;2023-03-22T05:09:22;99242.89;;;3.62;89.22
50710;BME280;37033;49.994;21.992;2023-03-22T05:11:54;99240.88;;;3.64;89.34
50710;BME280;37033;49.994;21.992;2023-03-22T05:14:24;99237.33;;;3.67;89.35
50710;BME280;37033;49.994;21.992;2023-03-22T05:16:56;99238.54;;;3.68;89.34
50710;BME280;37033;49.994;21.992;2023-03-22T05:19:27;99236.52;;;3.70;89.52
50710;BME280;37033;49.994;21.992;2023-03-22T05:21:57;99237.60;;;3.72;89.78
50710;BME280;37033;49.994;21.992;2023-03-22T05:24:30;99234.48;;;3.75;89.96
50710;BME280;37033;49.994;21.992;2023-03-22T05:27:02;99234.92;;;3.79;89.94
50710;BME280;37033;49.994;21.992;2023-03-22T05:29:33;99240.29;;;3.80;90.02
50710;BME280;37033;49.994;21.992;2023-03-22T05:32:13;99243.80;;;3.83;90.26
50710;BME280;37033;49.994;21.992;2023-03-22T05:34:46;99249.45;;;3.85;90.42
50710;BME280;37033;49.994;21.992;2023-03-22T05:37:17;99251.59;;;3.86;90.42
50710;BME280;37033;49.994;21.992;2023-03-22T05:39:49;99250.90;;;3.88;90.39
50710;BME280;37033;49.994;21.992;2023-03-22T05:42:20;99254.64;;;3.91;90.55
50710;BME280;37033;49.994;21.992;2023-03-22T05:44:51;99254.76;;;3.92;90.40
50710;BME280;37033;49.994;21.992;2023-03-22T05:47:21;99256.79;;;3.95;90.45
50710;BME280;37033;49.994;21.992;2023-03-22T05:49:52;99257.89;;;3.99;90.49
50710;BME280;37033;49.994;21.992;2023-03-22T05:52:23;99254.83;;;4.02;90.75
50710;BME280;37033;49.994;21.992;2023-03-22T05:54:54;99258.89;;;4.03;90.83
50710;BME280;37033;49.994;21.992;2023-03-22T05:57:25;99255.28;;;4.02;90.81
50710;BME280;37033;49.994;21.992;2023-03-22T05:59:58;99257.32;;;4.02;90.89
50710;BME280;37033;49.994;21.992;2023-03-22T06:02:30;99257.80;;;3.99;90.99
50710;BME280;37033;49.994;21.992;2023-03-22T06:05:01;99267.36;;;3.98;91.00
50710;BME280;37033;49.994;21.992;2023-03-22T06:07:31;99267.10;;;3.98;90.88
50710;BME280;37033;49.994;21.992;2023-03-22T06:10:03;99269.89;;;4.02;91.06
50710;BME280;37033;49.994;21.992;2023-03-22T06:12:34;99270.20;;;4.05;90.93
50710;BME280;37033;49.994;21.992;2023-03-22T06:15:07;99271.48;;;4.04;90.97
50710;BME280;37033;49.994;21.992;2023-03-22T06:17:38;99271.94;;;4.04;90.85
50710;BME280;37033;49.994;21.992;2023-03-22T06:20:12;99275.08;;;4.03;90.91
50710;BME280;37033;49.994;21.992;2023-03-22T06:22:44;99274.73;;;4.03;90.80
50710;BME280;37033;49.994;21.992;2023-03-22T06:25:14;99275.16;;;4.02;90.78
50710;BME280;37033;49.994;21.992;2023-03-22T06:27:45;99281.11;;;4.02;91.01
50710;BME280;37033;49.994;21.992;2023-03-22T06:30:17;99281.23;;;4.02;90.96
50710;BME280;37033;49.994;21.992;2023-03-22T06:32:48;99284.60;;;4.04;90.90
50710;BME280;37033;49.994;21.992;2023-03-22T06:35:19;99280.52;;;4.08;90.97
50710;BME280;37033;49.994;21.992;2023-03-22T06:37:50;99285.44;;;4.13;91.11
50710;BME280;37033;49.994;21.992;2023-03-22T06:40:21;99288.15;;;4.17;91.21
50710;BME280;37033;49.994;21.992;2023-03-22T06:42:51;99289.90;;;4.20;91.03
50710;BME280;37033;49.994;21.992;2023-03-22T06:45:23;99298.73;;;4.25;91.00
50710;BME280;37033;49.994;21.992;2023-03-22T06:47:54;99295.97;;;4.30;91.09
50710;BME280;37033;49.994;21.992;2023-03-22T06:50:24;99297.55;;;4.32;91.35
50710;BME280;37033;49.994;21.992;2023-03-22T06:52:55;99291.34;;;4.32;90.99
50710;BME280;37033;49.994;21.992;2023-03-22T06:55:26;99293.34;;;4.36;91.13
50710;BME280;37033;49.994;21.992;2023-03-22T06:57:57;99291.44;;;4.38;91.20
50710;BME280;37033;49.994;21.992;2023-03-22T07:00:27;99290.36;;;4.41;91.04
50710;BME280;37033;49.994;21.992;2023-03-22T07:02:58;99288.14;;;4.48;91.19
50710;BME280;37033;49.994;21.992;2023-03-22T07:05:29;99285.55;;;4.55;91.04
50710;BME280;37033;49.994;21.992;2023-03-22T07:08:00;99287.14;;;4.62;91.18
50710;BME280;37033;49.994;21.992;2023-03-22T07:10:31;99285.52;;;4.70;91.03
50710;BME280;37033;49.994;21.992;2023-03-22T07:13:02;99291.46;;;4.80;91.14
50710;BME280;37033;49.994;21.992;2023-03-22T07:15:32;99288.59;;;4.89;91.09
50710;BME280;37033;49.994;21.992;2023-03-22T07:18:03;99290.05;;;4.98;91.07
50710;BME280;37033;49.994;21.992;2023-03-22T07:20:36;99291.38;;;5.07;91.16
50710;BME280;37033;49.994;21.992;2023-03-22T07:23:09;99290.09;;;5.15;91.08
50710;BME280;37033;49.994;21.992;2023-03-22T07:25:40;99287.84;;;5.21;90.90
50710;BME280;37033;49.994;21.992;2023-03-22T07:28:11;99287.52;;;5.26;90.88
50710;BME280;37033;49.994;21.992;2023-03-22T07:30:42;99288.86;;;5.32;90.81
50710;BME280;37033;49.994;21.992;2023-03-22T07:33:13;99290.59;;;5.38;90.93
50710;BME280;37033;49.994;21.992;2023-03-22T07:35:43;99278.67;;;5.45;90.91
50710;BME280;37033;49.994;21.992;2023-03-22T07:38:14;99277.02;;;5.48;90.75
50710;BME280;37033;49.994;21.992;2023-03-22T07:40:45;99280.16;;;5.52;90.80
50710;BME280;37033;49.994;21.992;2023-03-22T07:43:15;99279.08;;;5.56;90.80
50710;BME280;37033;49.994;21.992;2023-03-22T07:45:47;99274.61;;;5.61;90.82
50710;BME280;37033;49.994;21.992;2023-03-22T07:48:18;99275.83;;;5.69;90.82
50710;BME280;37033;49.994;21.992;2023-03-22T07:50:53;99272.90;;;5.79;90.78
50710;BME280;37033;49.994;21.992;2023-03-22T07:53:24;99273.77;;;5.90;90.90
50710;BME280;37033;49.994;21.992;2023-03-22T07:55:55;99270.17;;;6.01;90.89
50710;BME280;37033;49.994;21.992;2023-03-22T07:58:26;99267.56;;;6.10;90.78
50710;BME280;37033;49.994;21.992;2023-03-22T08:00:56;99267.30;;;6.19;90.49
50710;BME280;37033;49.994;21.992;2023-03-22T08:03:28;99267.34;;;6.29;90.37
50710;BME280;37033;49.994;21.992;2023-03-22T08:06:04;99268.30;;;6.42;90.36
50710;BME280;37033;49.994;21.992;2023-03-22T08:08:37;99270.56;;;6.52;90.35
50710;BME280;37033;49.994;21.992;2023-03-22T08:11:08;99272.42;;;6.63;90.38
50710;BME280;37033;49.994;21.992;2023-03-22T08:13:40;99270.67;;;6.76;90.18
50710;BME280;37033;49.994;21.992;2023-03-22T08:16:11;99269.88;;;6.84;89.95
50710;BME280;37033;49.994;21.992;2023-03-22T08:18:42;99274.26;;;6.92;89.86
50710;BME280;37033;49.994;21.992;2023-03-22T08:21:13;99271.90;;;7.05;89.84
50710;BME280;37033;49.994;21.992;2023-03-22T08:23:44;99270.85;;;7.17;89.55
50710;BME280;37033;49.994;21.992;2023-03-22T08:26:14;99269.83;;;7.32;89.65
50710;BME280;37033;49.994;21.992;2023-03-22T08:28:46;99262.54;;;7.46;89.36
50710;BME280;37033;49.994;21.992;2023-03-22T08:31:17;99263.96;;;7.56;89.09
50710;BME280;37033;49.994;21.992;2023-03-22T08:33:48;99263.52;;;7.69;89.04
50710;BME280;37033;49.994;21.992;2023-03-22T08:36:21;99259.88;;;7.89;88.98
50710;BME280;37033;49.994;21.992;2023-03-22T08:38:53;99255.46;;;8.13;88.82
50710;BME280;37033;49.994;21.992;2023-03-22T08:41:24;99252.58;;;8.31;88.60
50710;BME280;37033;49.994;21.992;2023-03-22T08:43:55;99252.28;;;8.41;87.85
50710;BME280;37033;49.994;21.992;2023-03-22T08:46:26;99252.38;;;8.46;87.35
50710;BME280;37033;49.994;21.992;2023-03-22T08:48:57;99249.63;;;8.53;87.31
50710;BME280;37033;49.994;21.992;2023-03-22T08:51:29;99250.42;;;8.61;86.96
50710;BME280;37033;49.994;21.992;2023-03-22T08:54:02;99249.23;;;8.70;86.93
50710;BME280;37033;49.994;21.992;2023-03-22T08:56:33;99245.55;;;8.81;86.98
50710;BME280;37033;49.994;21.992;2023-03-22T08:59:07;99245.02;;;8.88;86.56
50710;BME280;37033;49.994;21.992;2023-03-22T09:01:38;99240.44;;;8.94;86.29
50710;BME280;37033;49.994;21.992;2023-03-22T09:04:09;99243.98;;;9.06;86.37
50710;BME280;37033;49.994;21.992;2023-03-22T09:06:40;99246.98;;;9.16;85.76
50710;BME280;37033;49.994;21.992;2023-03-22T09:09:13;99239.69;;;9.24;85.20
50710;BME280;37033;49.994;21.992;2023-03-22T09:11:44;99238.44;;;9.38;85.43
50710;BME280;37033;49.994;21.992;2023-03-22T09:14:15;99231.48;;;9.53;85.22
50710;BME280;37033;49.994;21.992;2023-03-22T09:16:46;99233.34;;;9.66;85.26
50710;BME280;37033;49.994;21.992;2023-03-22T09:19:17;99233.52;;;9.83;84.87
50710;BME280;37033;49.994;21.992;2023-03-22T09:21:48;99234.21;;;9.96;84.61
50710;BME280;37033;49.994;21.992;2023-03-22T09:24:19;99233.62;;;10.13;84.69
50710;BME280;37033;49.994;21.992;2023-03-22T09:26:50;99230.38;;;10.31;84.47
50710;BME280;37033;49.994;21.992;2023-03-22T09:29:21;99226.41;;;10.44;83.89
50710;BME280;37033;49.994;21.992;2023-03-22T09:31:52;99223.63;;;10.57;83.49
50710;BME280;37033;49.994;21.992;2023-03-22T09:34:23;99222.79;;;10.71;83.43
50710;BME280;37033;49.994;21.992;2023-03-22T09:36:54;99218.35;;;10.87;82.87
50710;BME280;37033;49.994;21.992;2023-03-22T09:39:26;99217.80;;;11.00;81.95
50710;BME280;37033;49.994;21.992;2023-03-22T09:41:59;99218.33;;;11.13;81.68
50710;BME280;37033;49.994;21.992;2023-03-22T09:44:35;99217.98;;;11.26;81.45
50710;BME280;37033;49.994;21.992;2023-03-22T09:47:15;99213.41;;;11.34;80.18
50710;BME280;37033;49.994;21.992;2023-03-22T09:49:49;99213.64;;;11.38;80.41
50710;BME280;37033;49.994;21.992;2023-03-22T09:52:24;99202.83;;;11.49;80.18
50710;BME280;37033;49.994;21.992;2023-03-22T09:54:55;99200.99;;;11.58;79.90
50710;BME280;37033;49.994;21.992;2023-03-22T09:57:30;99198.27;;;11.71;79.43
50710;BME280;37033;49.994;21.992;2023-03-22T10:00:13;99196.71;;;11.86;79.54
50710;BME280;37033;49.994;21.992;2023-03-22T10:02:56;99184.52;;;12.04;78.79
50710;BME280;37033;49.994;21.992;2023-03-22T10:05:33;99183.99;;;12.17;78.83
50710;BME280;37033;49.994;21.992;2023-03-22T10:08:18;99183.56;;;12.34;78.57
50710;BME280;37033;49.994;21.992;2023-03-22T10:10:53;99178.73;;;12.48;77.93
50710;BME280;37033;49.994;21.992;2023-03-22T10:13:28;99174.35;;;12.58;77.07
50710;BME280;37033;49.994;21.992;2023-03-22T10:16:04;99173.38;;;12.66;75.74
50710;BME280;37033;49.994;21.992;2023-03-22T10:18:37;99167.15;;;12.79;76.55
50710;BME280;37033;49.994;21.992;2023-03-22T10:21:10;99160.77;;;12.95;75.78
50710;BME280;37033;49.994;21.992;2023-03-22T10:23:45;99155.44;;;12.99;74.44
50710;BME280;37033;49.994;21.992;2023-03-22T10:26:19;99153.02;;;13.03;73.44
50710;BME280;37033;49.994;21.992;2023-03-22T10:28:58;99148.52;;;13.12;73.78
50710;BME280;37033;49.994;21.992;2023-03-22T10:31:33;99147.98;;;13.22;73.93
50710;BME280;37033;49.994;21.992;2023-03-22T10:34:06;99146.20;;;13.30;71.73
50710;BME280;37033;49.994;21.992;2023-03-22T10:36:38;99139.76;;;13.38;72.05
50710;BME280;37033;49.994;21.992;2023-03-22T10:39:18;99141.27;;;13.48;70.76
50710;BME280;37033;49.994;21.992;2023-03-22T10:41:57;99138.66;;;13.53;70.45
50710;BME280;37033;49.994;21.992;2023-03-22T10:44:32;99139.62;;;13.59;69.56
50710;BME280;37033;49.994;21.992;2023-03-22T10:47:08;99138.52;;;13.61;68.21
50710;BME280;37033;49.994;21.992;2023-03-22T10:49:43;99135.17;;;13.53;67.36
50710;BME280;37033;49.994;21.992;2023-03-22T10:52:25;99134.67;;;13.50;67.45
50710;BME280;37033;49.994;21.992;2023-03-22T10:54:58;99128.98;;;13.48;66.63
50710;BME280;37033;49.994;21.992;2023-03-22T10:57:29;99129.11;;;13.55;67.34
50710;BME280;37033;49.994;21.992;2023-03-22T11:00:00;99123.11;;;13.69;65.86
50710;BME280;37033;49.994;21.992;2023-03-22T11:02:51;99115.49;;;13.76;63.92
50710;BME280;37033;49.994;21.992;2023-03-22T11:05:26;99110.29;;;13.81;63.30
50710;BME280;37033;49.994;21.992;2023-03-22T11:07:59;99107.91;;;13.89;62.56
50710;BME280;37033;49.994;21.992;2023-03-22T11:10:32;99106.17;;;13.94;60.41
50710;BME280;37033;49.994;21.992;2023-03-22T11:13:17;99108.92;;;13.99;60.13
50710;BME280;37033;49.994;21.992;2023-03-22T11:15:53;99112.52;;;14.07;59.34
50710;BME280;37033;49.994;21.992;2023-03-22T11:18:25;99109.85;;;14.13;59.72
50710;BME280;37033;49.994;21.992;2023-03-22T11:20:59;99106.14;;;14.23;59.90
50710;BME280;37033;49.994;21.992;2023-03-22T11:23:32;99100.30;;;14.28;59.59
50710;BME280;37033;49.994;21.992;2023-03-22T11:26:08;99099.71;;;14.39;58.77
50710;BME280;37033;49.994;21.992;2023-03-22T11:28:44;99101.08;;;14.51;58.79
50710;BME280;37033;49.994;21.992;2023-03-22T11:31:17;99101.30;;;14.66;58.11
50710;BME280;37033;49.994;21.992;2023-03-22T11:33:56;99097.41;;;14.77;56.66
50710;BME280;37033;49.994;21.992;2023-03-22T11:36:29;99099.14;;;14.87;57.11
50710;BME280;37033;49.994;21.992;2023-03-22T11:39:01;99097.61;;;15.04;57.96
50710;BME280;37033;49.994;21.992;2023-03-22T11:41:35;99090.41;;;15.30;58.28
50710;BME280;37033;49.994;21.992;2023-03-22T11:44:09;99088.96;;;15.48;54.41
50710;BME280;37033;49.994;21.992;2023-03-22T11:46:40;99089.15;;;15.46;54.32
50710;BME280;37033;49.994;21.992;2023-03-22T11:49:18;99089.36;;;15.46;55.94
50710;BME280;37033;49.994;21.992;2023-03-22T11:51:50;99086.93;;;15.62;55.85
50710;BME280;37033;49.994;21.992;2023-03-22T11:54:27;99077.46;;;15.72;54.93
50710;BME280;37033;49.994;21.992;2023-03-22T11:57:03;99072.46;;;15.85;55.85
50710;BME280;37033;49.994;21.992;2023-03-22T11:59:44;99068.34;;;16.03;57.28
50710;BME280;37033;49.994;21.992;2023-03-22T12:02:20;99071.86;;;16.29;54.96
50710;BME280;37033;49.994;21.992;2023-03-22T12:04:56;99072.48;;;16.41;54.52
50710;BME280;37033;49.994;21.992;2023-03-22T12:07:31;99070.94;;;16.43;53.85
50710;BME280;37033;49.994;21.992;2023-03-22T12:10:10;99066.50;;;16.43;53.63
50710;BME280;37033;49.994;21.992;2023-03-22T12:12:45;99064.94;;;16.50;54.40
50710;BME280;37033;49.994;21.992;2023-03-22T12:15:22;99063.07;;;16.57;52.77
50710;BME280;37033;49.994;21.992;2023-03-22T12:17:57;99062.58;;;16.57;53.11
50710;BME280;37033;49.994;21.992;2023-03-22T12:20:36;99060.81;;;16.56;53.13
50710;BME280;37033;49.994;21.992;2023-03-22T12:23:14;99061.23;;;16.53;53.71
50710;BME280;37033;49.994;21.992;2023-03-22T12:25:49;99060.36;;;16.64;53.91
50710;BME280;37033;49.994;21.992;2023-03-22T12:28:24;99061.28;;;16.64;53.00
50710;BME280;37033;49.994;21.992;2023-03-22T12:30:59;99057.66;;;16.54;51.68
50710;BME280;37033;49.994;21.992;2023-03-22T12:33:34;99057.59;;;16.36;51.57
50710;BME280;37033;49.994;21.992;2023-03-22T12:36:13;99053.04;;;16.24;51.63
50710;BME280;37033;49.994;21.992;2023-03-22T12:38:48;99051.13;;;16.17;51.76
50710;BME280;37033;49.994;21.992;2023-03-22T12:41:31;99047.70;;;16.20;52.15
50710;BME280;37033;49.994;21.992;2023-03-22T12:44:04;99050.23;;;16.32;52.66
50710;BME280;37033;49.994;21.992;2023-03-22T12:46:47;99046.98;;;16.40;52.13
50710;BME280;37033;49.994;21.992;2023-03-22T12:49:25;99038.29;;;16.43;51.71
50710;BME280;37033;49.994;21.992;2023-03-22T12:52:02;99038.65;;;16.50;52.24
50710;BME280;37033;49.994;21.992;2023-03-22T12:54:36;99037.15;;;16.57;51.69
50710;BME280;37033;49.994;21.992;2023-03-22T12:57:09;99036.85;;;16.66;52.11
50710;BME280;37033;49.994;21.992;2023-03-22T12:59:42;99039.81;;;16.75;51.77
50710;BME280;37033;49.994;21.992;2023-03-22T13:02:17;99035.64;;;16.83;51.74
50710;BME280;37033;49.994;21.992;2023-03-22T13:04:55;99032.98;;;16.96;51.92
50710;BME280;37033;49.994;21.992;2023-03-22T13:07:36;99037.20;;;17.01;49.75
50710;BME280;37033;49.994;21.992;2023-03-22T13:13:13;99034.08;;;16.82;50.73
50710;BME280;37033;49.994;21.992;2023-03-22T13:16:00;99029.21;;;16.90;51.69
50710;BME280;37033;49.994;21.992;2023-03-22T13:18:54;99026.77;;;17.07;51.69
50710;BME280;37033;49.994;21.992;2023-03-22T13:21:27;99021.86;;;17.12;51.10
50710;BME280;37033;49.994;21.992;2023-03-22T13:24:01;99018.70;;;17.14;50.81
50710;BME280;37033;49.994;21.992;2023-03-22T13:26:49;99012.95;;;17.23;51.58
50710;BME280;37033;49.994;21.992;2023-03-22T13:29:23;99008.04;;;17.32;51.34
50710;BME280;37033;49.994;21.992;2023-03-22T13:31:59;99004.83;;;17.34;50.85
50710;BME280;37033;49.994;21.992;2023-03-22T13:34:35;99003.73;;;17.33;51.13
50710;BME280;37033;49.994;21.992;2023-03-22T13:37:16;99003.40;;;17.38;51.40
50710;BME280;37033;49.994;21.992;2023-03-22T13:39:54;98991.58;;;17.41;51.53